Time;durP1;ratioP1;P1;durP2;ratioP2;P2;SDS_P1;SDS_P2;PMS_P1;PMS_P2;Temp;Humidity;BMP_temperature;BMP_pressure;BME280_temperature;BME280_humidity;BME280_pressure;Samples;Min_cycle;Max_cycle;Signal;HPM_P1;HPM_P2
2021/07/06 00:01:45;;;;;;;310.90;81.67;;;;;;;;;;5072867;28;20705;-76
2021/07/06 00:04:11;;;;;;;315.10;85.20;;;;;;;;;;5064094;28;20895;-76
2021/07/06 00:06:38;;;;;;;311.50;81.40;;;;;;;;;;5056436;28;20444;-76
2021/07/06 00:09:04;;;;;;;381.00;92.07;;;;;;;;;;5052085;28;20493;-76
2021/07/06 00:11:30;;;;;;;323.43;82.40;;;;;;;;;;5052884;28;20453;-77
2021/07/06 00:13:56;;;;;;;304.50;81.20;;;;;;;;;;5051812;28;20408;-76
2021/07/06 00:16:22;;;;;;;315.30;83.37;;;;;;;;;;5069571;28;20408;-76
2021/07/06 00:18:48;;;;;;;312.13;81.83;;;;;;;;;;5073126;28;20805;-76
2021/07/06 00:21:14;;;;;;;310.17;80.37;;;;;;;;;;5062117;28;20442;-76
2021/07/06 00:23:41;;;;;;;339.73;88.30;;;;;;;;;;5052866;28;20418;-76
2021/07/06 00:26:07;;;;;;;337.90;86.20;;;;;;;;;;5065865;28;20461;-76
2021/07/06 00:28:33;;;;;;;321.37;84.43;;;;;;;;;;5072594;28;20889;-76
2021/07/06 00:30:59;;;;;;;319.20;84.47;;;;;;;;;;5065881;28;20437;-76
2021/07/06 00:33:29;;;;;;;308.67;83.93;;;;;;;;;;5062622;28;20396;-77
2021/07/06 00:35:59;;;;;;;324.53;83.47;;;;;;;;;;5072827;28;21113;-76
2021/07/06 00:38:28;;;;;;;328.80;83.87;;;;;;;;;;5072572;28;20771;-76
2021/07/06 00:40:55;;;;;;;317.80;84.07;;;;;;;;;;5072996;28;20408;-76
2021/07/06 00:43:22;;;;;;;332.17;84.90;;;;;;;;;;5063165;28;20415;-77
2021/07/06 00:45:48;;;;;;;342.47;88.87;;;;;;;;;;5063106;28;20424;-76
2021/07/06 00:48:14;;;;;;;335.50;85.77;;;;;;;;;;5073062;28;20414;-76
2021/07/06 00:50:40;;;;;;;335.13;85.30;;;;;;;;;;5072672;28;20570;-76
2021/07/06 00:53:07;;;;;;;353.63;87.20;;;;;;;;;;5064303;28;20496;-76
2021/07/06 00:55:33;;;;;;;335.97;85.97;;;;;;;;;;5061598;28;20406;-76
2021/07/06 00:58:00;;;;;;;343.13;86.07;;;17.20;1.00;;;;;;5061556;28;20419;-76
2021/07/06 01:00:26;;;;;;;332.70;83.10;;;;;;;;;;5059813;28;20421;-76
2021/07/06 01:02:53;;;;;;;323.83;83.93;;;;;;;;;;5054153;28;20418;-76
2021/07/06 01:05:23;;;;;;;339.40;84.33;;;17.10;1.00;;;;;;5052818;28;20446;-76
2021/07/06 01:07:50;;;;;;;329.17;82.90;;;;;;;;;;5084261;28;20469;-76
2021/07/06 01:10:16;;;;;;;336.60;84.00;;;;;;;;;;5064911;28;20903;-76
2021/07/06 01:12:48;;;;;;;326.30;81.10;;;;;;;;;;5068491;28;20406;-76
2021/07/06 01:15:23;;;;;;;345.77;87.97;;;16.90;1.00;;;;;;5061119;28;20452;-76
2021/07/06 01:18:04;;;;;;;364.37;89.37;;;;;;;;;;5054665;28;20987;-76
2021/07/06 01:20:31;;;;;;;355.97;86.33;;;;;;;;;;5053845;28;20452;-77
2021/07/06 01:22:58;;;;;;;347.73;84.10;;;;;;;;;;5060689;28;20414;-76
2021/07/06 01:25:24;;;;;;;343.10;83.10;;;;;;;;;;5056218;28;20476;-76
2021/07/06 01:27:50;;;;;;;250.47;71.50;;;;;;;;;;5055662;28;20842;-76
2021/07/06 01:30:17;;;;;;;250.07;70.73;;;;;;;;;;5055897;28;20876;-76
2021/07/06 01:32:44;;;;;;;279.17;77.20;;;;;;;;;;5055868;28;20391;-76
2021/07/06 01:35:11;;;;;;;281.53;77.50;;;;;;;;;;5063325;28;20409;-76
2021/07/06 01:37:42;;;;;;;314.23;81.57;;;;;;;;;;5075787;28;20390;-76
2021/07/06 01:40:08;;;;;;;328.43;83.93;;;;;;;;;;5066006;28;20420;-76
2021/07/06 01:42:35;;;;;;;167.70;61.33;;;;;;;;;;5055943;28;20951;-76
2021/07/06 01:45:06;;;;;;;188.80;63.60;;;;;;;;;;5065753;28;20432;-76
2021/07/06 01:47:36;;;;;;;199.07;63.50;;;16.50;1.00;;;;;;5063783;28;20445;-76
2021/07/06 01:50:02;;;;;;;248.73;70.70;;;;;;;;;;5054603;28;20762;-76
2021/07/06 01:52:28;;;;;;;212.10;66.07;;;;;;;;;;5055590;28;20787;-76
2021/07/06 01:54:54;;;;;;;215.50;66.53;;;;;;;;;;5070497;28;20832;-76
2021/07/06 01:57:24;;;;;;;194.67;62.37;;;;;;;;;;5055104;28;20386;-76
2021/07/06 01:59:54;;;;;;;206.57;66.17;;;;;;;;;;5055836;28;20851;-76
2021/07/06 02:02:20;;;;;;;208.33;65.07;;;;;;;;;;5055069;28;20391;-76
2021/07/06 02:04:48;;;;;;;177.97;61.90;;;;;;;;;;5063054;28;20597;-76
2021/07/06 02:07:14;;;;;;;201.47;65.80;;;;;;;;;;5074692;28;20467;-77
2021/07/06 02:09:41;;;;;;;224.37;65.70;;;;;;;;;;5064520;28;20417;-76
2021/07/06 02:12:07;;;;;;;209.40;65.53;;;;;;;;;;5075058;28;20888;-76
2021/07/06 02:14:36;;;;;;;218.17;66.60;;;;;;;;;;5059003;28;20410;-76
2021/07/06 02:17:02;;;;;;;221.47;67.50;;;;;;;;;;5062340;28;20444;-76
2021/07/06 02:19:28;;;;;;;212.43;64.87;;;;;;;;;;5055375;28;20409;-76
2021/07/06 02:21:54;;;;;;;218.90;65.50;;;;;;;;;;5063861;28;20856;-76
2021/07/06 02:24:20;;;;;;;218.20;66.10;;;;;;;;;;5060956;28;20418;-76
2021/07/06 02:26:46;;;;;;;212.63;64.33;;;;;;;;;;5054660;28;20778;-76
2021/07/06 02:29:12;;;;;;;231.37;67.87;;;;;;;;;;5054955;28;20406;-76
2021/07/06 02:31:38;;;;;;;234.00;65.77;;;;;;;;;;5054266;28;20501;-76
2021/07/06 02:34:04;;;;;;;218.73;65.37;;;;;;;;;;5054799;28;20418;-75
2021/07/06 02:36:30;;;;;;;217.73;64.97;;;;;;;;;;5054705;28;20433;-76
2021/07/06 02:38:56;;;;;;;231.27;66.47;;;;;;;;;;5054759;28;20798;-77
2021/07/06 02:41:22;;;;;;;229.00;65.67;;;;;;;;;;5054649;28;20394;-76
2021/07/06 02:43:48;;;;;;;193.17;61.13;;;;;;;;;;5054021;28;20916;-77
2021/07/06 02:46:18;;;;;;;198.37;63.23;;;;;;;;;;5057415;28;20590;-76
2021/07/06 02:48:44;;;;;;;172.77;58.87;;;;;;;;;;5053670;28;20409;-76
2021/07/06 02:51:14;;;;;;;199.03;63.27;;;;;;;;;;5054624;28;20433;-76
2021/07/06 02:53:40;;;;;;;231.40;66.47;;;;;;;;;;5053657;28;20418;-76
2021/07/06 02:56:07;;;;;;;218.90;64.17;;;;;;;;;;5053249;28;20916;-76
2021/07/06 02:58:33;;;;;;;209.27;62.87;;;;;;;;;;5054281;28;20434;-76
2021/07/06 03:01:00;;;;;;;226.20;66.20;;;;;;;;;;5054400;28;20394;-76
2021/07/06 03:03:26;;;;;;;212.83;62.67;;;;;;;;;;5054334;28;20414;-76
2021/07/06 03:05:52;;;;;;;219.67;63.63;;;;;;;;;;5064469;28;20908;-76
2021/07/06 03:08:18;;;;;;;229.63;65.33;;;;;;;;;;5070630;28;20411;-76
2021/07/06 03:10:44;;;;;;;253.47;68.60;;;;;;;;;;5053565;28;20414;-76
2021/07/06 03:13:10;;;;;;;278.70;72.20;;;;;;;;;;5054123;28;20524;-76
2021/07/06 03:15:37;;;;;;;246.93;67.80;;;15.60;1.00;;;;;;5054176;28;20406;-76
2021/07/06 03:18:06;;;;;;;268.53;71.50;;;;;;;;;;5055947;28;20426;-76
2021/07/06 03:20:36;;;;;;;254.13;68.87;;;;;;;;;;5063763;28;20418;-76
2021/07/06 03:23:03;;;;;;;256.97;68.37;;;;;;;;;;5053866;28;20394;-76
2021/07/06 03:25:32;;;;;;;253.10;69.20;;;;;;;;;;5061666;28;20748;-76
2021/07/06 03:28:00;;;;;;;268.30;70.07;;;15.60;1.00;;;;;;5073516;28;20445;-76
2021/07/06 03:30:29;;;;;;;281.50;72.37;;;15.60;1.00;;;;;;5071629;28;20401;-76
2021/07/06 03:32:57;;;;;;;297.93;72.07;;;15.60;1.00;;;;;;5073666;28;20409;-76
2021/07/06 03:35:24;;;;;;;283.97;72.83;;;;;;;;;;5071605;28;20422;-76
2021/07/06 03:37:50;;;;;;;274.37;71.67;;;;;;;;;;5064322;28;20901;-77
2021/07/06 03:40:17;;;;;;;266.63;70.20;;;;;;;;;;5052635;28;20456;-77
2021/07/06 03:42:43;;;;;;;275.40;73.30;;;;;;;;;;5052991;28;20405;-77
2021/07/06 03:45:10;;;;;;;305.90;75.43;;;;;;;;;;5051282;28;20406;-76
2021/07/06 03:47:36;;;;;;;286.30;73.47;;;;;;;;;;5060958;28;20500;-76
2021/07/06 03:50:02;;;;;;;214.23;63.27;;;;;;;;;;5053791;28;20449;-75
2021/07/06 03:52:28;;;;;;;229.13;65.47;;;;;;;;;;5053107;28;20394;-76
2021/07/06 03:54:54;;;;;;;208.33;63.30;;;;;;;;;;5052994;28;20414;-76
2021/07/06 03:57:30;;;;;;;201.67;61.13;;;;;;;;;;5053264;28;20451;-76
2021/07/06 04:00:00;;;;;;;173.57;57.93;;;15.60;1.00;;;;;;5059140;28;20413;-76
2021/07/06 04:02:27;;;;;;;163.10;56.03;;;;;;;;;;5057960;28;20564;-76
2021/07/06 04:04:53;;;;;;;168.07;56.40;;;15.60;1.00;;;;;;5053083;28;20441;-76
2021/07/06 04:07:19;;;;;;;164.87;55.83;;;;;;;;;;5052476;28;20449;-76
2021/07/06 04:09:46;;;;;;;178.33;57.77;;;;;;;;;;5068788;28;20413;-76
2021/07/06 04:12:12;;;;;;;166.97;57.60;;;;;;;;;;5072843;28;20905;-76
2021/07/06 04:14:38;;;;;;;148.50;54.37;;;;;;;;;;5063410;28;20493;-76
2021/07/06 04:17:05;;;;;;;140.10;52.90;;;;;;;;;;5062161;28;20438;-76
2021/07/06 04:19:36;;;;;;;175.43;58.17;;;;;;;;;;5052921;28;20391;-76
2021/07/06 04:22:02;;;;;;;175.17;56.20;;;;;;;;;;5053023;28;20418;-76
2021/07/06 04:24:30;;;;;;;139.90;52.90;;;;;;;;;;5053034;28;20404;-76
2021/07/06 04:26:56;;;;;;;165.40;57.53;;;;;;;;;;5052734;28;20490;-76
2021/07/06 04:29:23;;;;;;;156.20;55.63;;;;;;;;;;5052831;28;20385;-76
2021/07/06 04:31:49;;;;;;;157.50;56.33;;;;;;;;;;5051282;28;20772;-77
2021/07/06 04:34:15;;;;;;;163.60;57.20;;;;;;;;;;5065668;28;20453;-76
2021/07/06 04:36:41;;;;;;;194.17;59.23;;;;;;;;;;5056887;28;20419;-76
2021/07/06 04:39:12;;;;;;;140.47;53.80;;;;;;;;;;5055744;28;20530;-81
2021/07/06 04:41:38;;;;;;;166.63;57.87;;;;;;;;;;5063330;28;20368;-81
2021/07/06 04:44:06;;;;;;;152.33;55.47;;;;;;;;;;5068831;28;20485;-81
2021/07/06 04:46:32;;;;;;;169.00;58.77;;;;;;;;;;5054715;28;20464;-81
2021/07/06 04:48:58;;;;;;;165.63;57.37;;;;;;;;;;5072606;28;20379;-81
2021/07/06 04:51:24;;;;;;;158.00;55.40;;;;;;;;;;5061111;28;20410;-80
2021/07/06 04:53:50;;;;;;;173.40;59.57;;;;;;;;;;5052649;28;20392;-80
2021/07/06 04:59:38;;;;;;;198.13;62.50;;;;;;;;;;5056644;28;20508;-80
2021/07/06 05:02:24;;;;;;;193.70;62.43;;;16.80;1.00;;;;;;5056618;28;20413;-80
2021/07/06 05:04:50;;;;;;;180.30;60.60;;;;;;;;;;5058879;28;20874;-80
2021/07/06 05:07:16;;;;;;;179.73;62.10;;;;;;;;;;5076593;28;20838;-76
2021/07/06 05:09:42;;;;;;;188.73;63.07;;;;;;;;;;5061278;28;20454;-76
2021/07/06 05:12:08;;;;;;;183.83;62.20;;;;;;;;;;5055325;28;21034;-77
2021/07/06 05:14:34;;;;;;;146.73;54.43;;;;;;;;;;5056008;28;20497;-76
2021/07/06 05:17:02;;;;;;;148.77;53.00;;;;;;;;;;5071452;28;20423;-76
2021/07/06 05:19:30;;;;;;;110.50;49.20;;;;;;;;;;5056701;28;20392;-78
2021/07/06 05:21:56;;;;;;;125.70;52.63;;;;;;;;;;5056430;28;20823;-77
2021/07/06 05:24:22;;;;;;;135.90;54.43;;;;;;;;;;5056590;28;20777;-77
2021/07/06 05:26:48;;;;;;;118.97;52.80;;;;;;;;;;5056106;28;20799;-76
2021/07/06 05:29:15;;;;;;;112.23;49.97;;;;;;;;;;5055624;28;20767;-77
2021/07/06 05:31:41;;;;;;;111.40;49.43;;;;;;;;;;5056098;28;20401;-76
2021/07/06 05:34:07;;;;;;;116.40;52.37;;;;;;;;;;5056603;28;20465;-76
2021/07/06 05:36:34;;;;;;;132.77;53.10;;;;;;;;;;5055061;28;20509;-76
2021/07/06 05:39:01;;;;;;;114.43;53.53;;;;;;;;;;5059953;28;20386;-76
2021/07/06 05:41:27;;;;;;;121.20;51.97;;;;;;;;;;5075909;28;20415;-76
2021/07/06 05:43:53;;;;;;;128.73;54.87;;;;;;;;;;5075352;28;20809;-76
2021/07/06 05:46:19;;;;;;;114.00;52.70;;;;;;;;;;5074586;28;20758;-76
2021/07/06 05:48:45;;;;;;;133.03;53.80;;;;;;;;;;5055614;28;20397;-76
2021/07/06 05:51:12;;;;;;;125.37;55.03;;;;;;;;;;5058186;28;20413;-77
2021/07/06 05:53:38;;;;;;;139.37;56.90;;;;;;;;;;5066338;28;20436;-76
2021/07/06 05:56:04;;;;;;;125.90;55.83;;;19.90;99.90;;;;;;5057937;28;20411;-76
2021/07/06 05:58:30;;;;;;;110.07;54.57;;;;;;;;;;5073086;28;20423;-76
2021/07/06 06:00:56;;;;;;;172.13;61.20;;;;;;;;;;5069516;28;20400;-76
2021/07/06 06:03:22;;;;;;;117.40;53.23;;;;;;;;;;5070425;28;20420;-76
2021/07/06 06:05:48;;;;;;;125.93;52.30;;;;;;;;;;5061524;28;20800;-76
2021/07/06 06:08:14;;;;;;;119.60;52.90;;;;;;;;;;5058331;28;20464;-76
2021/07/06 06:10:41;;;;;;;101.40;51.50;;;;;;;;;;5054278;28;20447;-76
2021/07/06 06:13:07;;;;;;;89.40;47.20;;;;;;;;;;5053399;28;20417;-76
2021/07/06 06:15:33;;;;;;;82.53;43.07;;;;;;;;;;5054279;28;20413;-76
2021/07/06 06:17:59;;;;;;;105.33;36.90;;;;;;;;;;5053779;28;20783;-76
2021/07/06 06:20:25;;;;;;;62.80;38.70;;;;;;;;;;5068453;28;20406;-76
2021/07/06 06:22:51;;;;;;;64.03;38.73;;;;;;;;;;5074893;28;20391;-76
2021/07/06 06:25:17;;;;;;;82.57;40.63;;;;;;;;;;5074083;28;20404;-77
2021/07/06 06:27:43;;;;;;;52.00;34.03;;;;;;;;;;5073671;28;20491;-77
2021/07/06 06:30:10;;;;;;;61.13;39.50;;;;;;;;;;5073614;28;20391;-76
2021/07/06 06:32:36;;;;;;;100.63;44.30;;;;;;;;;;5073804;28;20430;-77
2021/07/06 06:35:03;;;;;;;64.87;38.40;;;;;;;;;;5074088;28;20727;-77
2021/07/06 06:37:29;;;;;;;60.93;38.13;;;;;;;;;;5073722;28;20486;-76
2021/07/06 06:39:55;;;;;;;47.37;27.77;;;;;;;;;;5072931;28;20512;-76
2021/07/06 06:42:20;;;;;;;45.23;21.20;;;;;;;;;;5074040;28;20400;-76
2021/07/06 06:44:47;;;;;;;30.60;24.20;;;;;;;;;;5073651;28;20403;-77
2021/07/06 06:47:14;;;;;;;50.33;27.77;;;;;;;;;;5073362;28;20686;-77
2021/07/06 06:49:40;;;;;;;30.93;21.57;;;;;;;;;;5073801;28;20448;-77
2021/07/06 06:52:06;;;;;;;43.27;26.90;;;;;;;;;;5072281;28;20477;-76
2021/07/06 06:54:34;;;;;;;55.50;30.67;;;;;;;;;;5063190;28;20906;-76
2021/07/06 06:57:00;;;;;;;39.33;28.00;;;;;;;;;;5073357;28;20451;-76
2021/07/06 06:59:26;;;;;;;72.93;33.87;;;;;;;;;;5073019;28;20418;-76
2021/07/06 07:02:16;;;;;;;43.60;31.70;;;;;;;;;;5073559;28;20369;-76
2021/07/06 07:04:38;;;;;;;68.63;35.90;;;;;;;;;;5073165;28;20441;-76
2021/07/06 07:07:04;;;;;;;60.73;37.23;;;;;;;;;;5073727;28;20454;-75
2021/07/06 07:09:30;;;;;;;77.80;39.47;;;;;;;;;;5059165;28;20436;-76
2021/07/06 07:11:56;;;;;;;55.57;36.83;;;;;;;;;;5053039;28;20427;-76
2021/07/06 07:14:22;;;;;;;81.83;40.07;;;;;;;;;;5053154;28;20761;-76
2021/07/06 07:16:48;;;;;;;87.87;43.70;;;;;;;;;;5052390;28;20407;-76
2021/07/06 07:19:14;;;;;;;63.33;39.07;;;;;;;;;;5069959;28;20484;-76
2021/07/06 07:21:40;;;;;;;79.30;45.27;;;;;;;;;;5073389;28;20430;-76
2021/07/06 07:24:06;;;;;;;61.60;40.70;;;;;;;;;;5073392;28;20400;-76
2021/07/06 07:26:32;;;;;;;207.33;64.07;;;;;;;;;;5068723;28;20493;-76
2021/07/06 07:28:58;;;;;;;80.57;46.67;;;;;;;;;;5057247;28;20446;-76
2021/07/06 07:31:24;;;;;;;96.60;48.63;;;;;;;;;;5051645;28;20401;-76
2021/07/06 07:33:50;;;;;;;96.37;50.60;;;;;;;;;;5065001;28;20412;-76
2021/07/06 07:36:16;;;;;;;106.30;54.97;;;;;;;;;;5072424;28;20876;-76
2021/07/06 07:38:42;;;;;;;92.53;50.70;;;;;;;;;;5073165;28;20404;-76
2021/07/06 07:41:08;;;;;;;147.77;62.03;;;;;;;;;;5072553;28;20440;-76
2021/07/06 07:43:34;;;;;;;127.13;58.53;;;;;;;;;;5071938;28;20387;-76
2021/07/06 07:46:00;;;;;;;154.97;71.70;;;;;;;;;;5072294;28;20877;-76
2021/07/06 07:48:26;;;;;;;119.60;57.60;;;;;;;;;;5072053;28;20468;-76
2021/07/06 07:50:52;;;;;;;166.33;69.13;;;;;;;;;;5071976;28;20887;-76
2021/07/06 07:53:18;;;;;;;135.73;62.30;;;;;;;;;;5071854;28;20385;-76
2021/07/06 07:55:44;;;;;;;108.40;56.80;;;;;;;;;;5053056;28;20824;-76
2021/07/06 07:58:10;;;;;;;114.80;57.77;;;;;;;;;;5051646;28;20443;-76
2021/07/06 08:00:36;;;;;;;149.10;63.63;;;;;;;;;;5052203;28;20470;-76
2021/07/06 08:03:02;;;;;;;129.37;61.37;;;;;;;;;;5051723;28;20915;-76
2021/07/06 08:05:28;;;;;;;117.33;58.00;;;;;;;;;;5050697;28;20436;-77
2021/07/06 08:07:54;;;;;;;102.67;53.40;;;;;;;;;;5052129;28;20420;-76
2021/07/06 08:10:20;;;;;;;101.47;54.87;;;;;;;;;;5051938;28;20397;-76
2021/07/06 08:12:46;;;;;;;102.00;54.40;;;;;;;;;;5051489;28;20396;-76
2021/07/06 08:15:12;;;;;;;105.80;53.97;;;;;;;;;;5052662;28;20458;-75
2021/07/06 08:17:38;;;;;;;130.17;58.03;;;;;;;;;;5051343;28;20848;-75
2021/07/06 08:20:05;;;;;;;128.23;58.63;;;;;;;;;;5052394;28;20921;-75
2021/07/06 08:22:31;;;;;;;108.73;56.00;;;;;;;;;;5064772;28;20751;-76
2021/07/06 08:24:59;;;;;;;99.10;52.37;;;;;;;;;;5071922;28;20404;-76
2021/07/06 08:27:25;;;;;;;101.63;52.90;;;;;;;;;;5071791;28;20473;-76
2021/07/06 08:29:51;;;;;;;110.63;55.57;;;;;;;;;;5071756;28;20422;-76
2021/07/06 08:32:17;;;;;;;153.43;62.47;;;;;;;;;;5071620;28;20364;-76
2021/07/06 08:34:43;;;;;;;136.10;60.97;;;;;;;;;;5072089;28;20409;-76
2021/07/06 08:37:09;;;;;;;157.37;68.27;;;;;;;;;;5071766;28;20458;-76
2021/07/06 08:39:36;;;;;;;191.47;74.30;;;;;;;;;;5072497;28;20397;-75
2021/07/06 08:42:02;;;;;;;165.07;68.53;;;;;;;;;;5071485;28;20458;-75
2021/07/06 08:44:28;;;;;;;159.63;66.70;;;;;;;;;;5072225;28;20729;-75
2021/07/06 08:46:57;;;;;;;156.70;66.37;;;;;;;;;;5072479;28;20404;-75
2021/07/06 08:49:25;;;;;;;126.30;57.30;;;20.50;99.90;;;;;;5071680;28;20391;-75
2021/07/06 08:51:51;;;;;;;154.67;67.43;;;;;;;;;;5071377;28;20379;-75
2021/07/06 08:54:18;;;;;;;156.53;63.30;;;;;;;;;;5072279;28;20499;-75
2021/07/06 08:56:44;;;;;;;168.17;67.10;;;;;;;;;;5049854;28;20467;-76
2021/07/06 08:59:10;;;;;;;159.97;64.90;;;;;;;;;;5051468;28;20440;-76
2021/07/06 09:01:36;;;;;;;174.90;70.77;;;;;;;;;;5051171;28;20391;-76
2021/07/06 09:04:04;;;;;;;169.97;67.40;;;20.40;99.90;;;;;;5051834;28;20414;-76
2021/07/06 09:06:33;;;;;;;134.03;59.83;;;20.50;99.90;;;;;;5051157;28;20838;-76
2021/07/06 09:09:18;;;;;;;157.20;65.03;;;;;;;;;;5052036;28;20425;-76
2021/07/06 09:11:51;;;;;;;149.33;64.43;;;20.70;99.90;;;;;;5049697;28;20792;-76
2021/07/06 09:14:17;;;;;;;184.93;68.40;;;;;;;;;;5051247;28;20372;-76
2021/07/06 09:16:44;;;;;;;205.10;75.93;;;;;;;;;;5050020;28;20467;-76
2021/07/06 09:19:17;;;;;;;194.27;72.10;;;;;;;;;;5051435;28;20399;-76
2021/07/06 09:21:43;;;;;;;200.13;72.90;;;;;;;;;;5056948;28;20384;-76
2021/07/06 09:24:24;;;;;;;221.70;75.50;;;20.90;99.90;;;;;;5071507;28;20371;-76
2021/07/06 09:26:51;;;;;;;235.37;76.00;;;;;;;;;;5070771;28;20423;-76
2021/07/06 09:29:22;;;;;;;189.53;70.90;;;;;;;;;;5070388;28;20453;-76
2021/07/06 09:31:48;;;;;;;207.80;76.17;;;;;;;;;;5071335;28;20444;-76
2021/07/06 09:34:14;;;;;;;183.83;69.60;;;;;;;;;;5071632;28;20893;-76
2021/07/06 09:36:40;;;;;;;190.77;72.00;;;;;;;;;;5070826;28;20510;-76
2021/07/06 09:39:06;;;;;;;205.07;71.43;;;;;;;;;;5071541;28;20478;-76
2021/07/06 09:41:32;;;;;;;182.03;68.20;;;;;;;;;;5071743;28;20412;-76
2021/07/06 09:44:37;;;;;;;202.23;73.47;;;21.00;99.90;;;;;;5074788;28;20865;-76
2021/07/06 09:47:03;;;;;;;216.80;77.80;;;;;;;;;;5012352;28;20417;-76
2021/07/06 09:49:32;;;;;;;200.83;72.87;;;21.10;99.90;;;;;;5012775;28;20416;-76
2021/07/06 09:52:07;;;;;;;185.93;69.83;;;21.20;99.90;;;;;;5012965;28;20409;-76
2021/07/06 09:54:35;;;;;;;177.10;67.47;;;21.30;99.90;;;;;;5012582;28;20507;-76
2021/07/06 09:57:12;;;;;;;185.23;68.67;;;21.30;99.90;;;;;;5010588;28;21008;-76
2021/07/06 09:59:52;;;;;;;179.50;71.20;;;;;;;;;;5012160;28;20516;-76
2021/07/06 10:02:21;;;;;;;171.10;67.27;;;;;;;;;;5012437;28;20414;-75
2021/07/06 10:04:52;;;;;;;177.60;68.30;;;21.30;99.90;;;;;;5012414;28;20411;-75
2021/07/06 10:07:22;;;;;;;194.17;71.20;;;;;;;;;;5011980;28;20400;-75
2021/07/06 10:09:49;;;;;;;198.53;72.20;;;;;;;;;;5012597;28;20515;-76
2021/07/06 10:12:16;;;;;;;215.70;73.77;;;21.00;99.90;;;;;;5012057;28;20496;-76
2021/07/06 10:14:42;;;;;;;209.33;72.17;;;;;;;;;;5012201;28;20421;-76
2021/07/06 10:17:10;;;;;;;197.73;71.00;;;21.10;99.90;;;;;;5012201;28;20459;-76
2021/07/06 10:19:36;;;;;;;191.00;70.00;;;;;;;;;;4996036;28;20768;-76
2021/07/06 10:22:02;;;;;;;188.90;69.67;;;;;;;;;;5060542;28;20783;-76
2021/07/06 10:24:28;;;;;;;195.27;71.57;;;;;;;;;;5074519;28;20418;-75
2021/07/06 10:26:59;;;;;;;223.93;75.13;;;21.40;99.90;;;;;;5073720;28;21133;-75
2021/07/06 10:29:35;;;;;;;196.30;71.17;;;;;;;;;;5074126;28;21091;-75
2021/07/06 10:32:01;;;;;;;203.40;69.97;;;;;;;;;;5073895;28;20823;-75
2021/07/06 10:34:28;;;;;;;206.83;71.90;;;;;;;;;;5074476;28;20454;-76
2021/07/06 10:36:58;;;;;;;228.30;74.37;;;21.50;99.90;;;;;;5073812;28;20756;-76
2021/07/06 10:39:47;;;;;;;202.70;72.67;;;;;;;;;;5074130;28;20760;-75
2021/07/06 10:42:13;;;;;;;239.13;78.33;;;;;;;;;;5073704;28;20367;-76
2021/07/06 10:44:41;;;;;;;217.83;74.00;;;;;;;;;;5073567;28;20421;-75
2021/07/06 10:47:35;;;;;;;210.30;73.37;;;21.90;99.90;;;;;;5073796;28;20451;-75
2021/07/06 10:50:29;;;;;;;235.97;78.03;;;22.30;99.90;;;;;;5073711;28;20375;-76
2021/07/06 10:53:16;;;;;;;220.37;75.97;;;;;;;;;;5073459;28;20792;-76
2021/07/06 10:55:44;;;;;;;219.20;74.33;;;22.70;99.90;;;;;;5073782;28;20399;-76
2021/07/06 10:58:10;;;;;;;233.57;79.43;;;;;;;;;;5056382;28;20437;-76
2021/07/06 11:00:43;;;;;;;229.37;78.93;;;;;;;;;;5053262;28;20491;-76
2021/07/06 11:03:19;;;;;;;233.77;80.30;;;23.80;99.90;;;;;;5053684;28;20411;-76
2021/07/06 11:05:45;;;;;;;263.97;84.30;;;;;;;;;;5053166;28;20481;-76
2021/07/06 11:08:47;;;;;;;242.80;82.53;;;24.30;99.90;;;;;;5052997;28;20451;-76
2021/07/06 11:11:33;;;;;;;295.63;95.20;;;;;;;;;;5052950;28;20400;-75
2021/07/06 11:14:18;;;;;;;260.23;86.90;;;24.30;99.90;;;;;;5053057;28;20400;-75
2021/07/06 11:16:44;;;;;;;273.07;88.97;;;;;;;;;;5053053;28;20400;-75
2021/07/06 11:19:39;;;;;;;247.43;83.70;;;24.50;99.90;;;;;;5053178;28;20838;-75
2021/07/06 11:22:11;;;;;;;260.80;90.97;;;;;;;;;;5061557;28;20403;-75
2021/07/06 11:24:41;;;;;;;289.47;95.43;;;;;;;;;;5073285;28;20419;-75
2021/07/06 11:27:08;;;;;;;265.40;88.20;;;;;;;;;;5065146;28;20625;-75
2021/07/06 11:29:35;;;;;;;191.63;79.67;;;24.40;99.90;;;;;;5071795;28;20428;-76
2021/07/06 11:32:08;;;;;;;189.00;80.83;;;24.20;99.90;;;;;;5067387;28;20750;-75
2021/07/06 11:34:35;;;;;;;194.37;75.33;;;24.00;99.90;;;;;;5057059;28;20919;-75
2021/07/06 11:37:04;;;;;;;187.17;74.43;;;;;;;;;;5072752;28;20400;-75
2021/07/06 11:39:30;;;;;;;242.80;84.70;;;;;;;;;;5073025;28;20439;-75
2021/07/06 11:41:56;;;;;;;235.27;84.23;;;;;;;;;;5072495;28;20475;-75
2021/07/06 11:44:22;;;;;;;215.20;80.80;;;;;;;;;;5072633;28;20390;-75
2021/07/06 11:46:48;;;;;;;228.13;85.20;;;;;;;;;;5072292;28;20870;-75
2021/07/06 11:49:20;;;;;;;218.20;79.83;;;23.60;99.90;;;;;;5065197;28;20514;-75
2021/07/06 11:51:46;;;;;;;213.47;77.03;;;;;;;;;;5071478;28;20413;-75
2021/07/06 11:54:18;;;;;;;223.50;83.87;;;;;;;;;;5072563;28;20390;-75
2021/07/06 11:56:44;;;;;;;243.50;83.67;;;;;;;;;;5070218;28;20496;-76
2021/07/06 11:59:11;;;;;;;207.53;78.23;;;23.80;99.90;;;;;;5072486;28;20485;-74
2021/07/06 12:01:37;;;;;;;217.77;81.97;;;;;;;;;;5071911;28;20516;-74
2021/07/06 12:04:03;;;;;;;209.93;77.47;;;;;;;;;;5072533;28;20418;-76
2021/07/06 12:06:31;;;;;;;227.87;82.83;;;;;;;;;;5069888;28;20464;-77
2021/07/06 12:09:01;;;;;;;223.10;81.17;;;;;;;;;;5063239;28;20736;-76
2021/07/06 12:11:31;;;;;;;238.87;82.63;;;;;;;;;;5060158;28;20413;-76
2021/07/06 12:13:59;;;;;;;241.97;83.97;;;23.20;99.90;;;;;;5072580;28;20397;-77
2021/07/06 12:16:25;;;;;;;232.50;83.93;;;;;;;;;;5070944;28;20866;-77
2021/07/06 12:19:13;;;;;;;233.97;83.30;;;22.90;99.90;;;;;;5071904;28;20394;-77
2021/07/06 12:21:43;;;;;;;231.70;82.00;;;;;;;;;;5058310;28;20783;-77
2021/07/06 12:24:13;;;;;;;231.40;80.40;;;;;;;;;;5052235;28;20392;-77
2021/07/06 12:26:40;;;;;;;242.17;81.27;;;;;;;;;;5052417;28;20410;-76
2021/07/06 12:29:07;;;;;;;234.43;79.40;;;;;;;;;;5052449;28;20376;-76
2021/07/06 12:31:34;;;;;;;248.30;82.27;;;22.30;99.90;;;;;;5054975;28;20421;-76
2021/07/06 12:34:06;;;;;;;230.33;79.40;;;;;;;;;;5052239;28;20404;-76
2021/07/06 12:36:38;;;;;;;238.30;79.63;;;;;;;;;;5050992;28;20423;-75
2021/07/06 12:39:20;;;;;;;254.87;84.17;;;;;;;;;;5051752;28;20378;-75
2021/07/06 12:41:51;;;;;;;266.30;85.30;;;22.00;99.90;;;;;;5052518;28;20368;-77
2021/07/06 12:44:18;;;;;;;145.97;56.40;;;;;;;;;;5061906;28;20460;-78
2021/07/06 12:46:44;;;;;;;114.47;54.73;;;;;;;;;;5071502;28;20526;-77
2021/07/06 12:49:10;;;;;;;123.90;57.83;;;;;;;;;;5072124;28;20393;-77
2021/07/06 12:51:36;;;;;;;140.00;62.20;;;;;;;;;;5071980;28;20774;-77
2021/07/06 12:54:04;;;;;;;156.73;65.00;;;21.90;99.90;;;;;;5071918;28;20877;-77
2021/07/06 12:56:31;;;;;;;169.87;69.30;;;21.70;99.90;;;;;;5067313;28;20466;-77
2021/07/06 12:59:23;;;;;;;172.73;66.67;;;21.60;99.90;;;;;;5051926;28;20477;-77
2021/07/06 13:01:50;;;;;;;172.07;67.27;;;;;;;;;;5052759;28;20412;-77
2021/07/06 13:04:17;;;;;;;185.70;71.97;;;;;;;;;;5052597;28;20390;-77
2021/07/06 13:06:43;;;;;;;231.30;73.83;;;;;;;;;;5052567;28;20447;-77
2021/07/06 13:09:09;;;;;;;197.03;73.57;;;;;;;;;;5057662;28;20414;-77
2021/07/06 13:11:35;;;;;;;198.80;72.07;;;;;;;;;;5060694;28;20761;-75
2021/07/06 13:14:17;;;;;;;201.77;74.80;;;;;;;;;;5052516;28;20859;-74
2021/07/06 13:16:44;;;;;;;212.43;73.20;;;;;;;;;;5067909;28;20418;-75
2021/07/06 13:19:25;;;;;;;218.67;75.83;;;;;;;;;;5075790;28;20746;-75
2021/07/06 13:21:52;;;;;;;220.77;75.07;;;;;;;;;;5062387;28;20447;-75
2021/07/06 13:24:18;;;;;;;226.83;74.53;;;;;;;;;;5055213;28;20431;-74
2021/07/06 13:26:45;;;;;;;233.53;78.17;;;;;;;;;;5056217;28;21013;-76
2021/07/06 13:29:11;;;;;;;238.53;77.07;;;;;;;;;;5056127;28;20399;-76
2021/07/06 13:31:40;;;;;;;212.63;73.00;;;;;;;;;;5056279;28;20520;-77
2021/07/06 13:34:08;;;;;;;254.83;77.17;;;;;;;;;;5056162;28;20403;-77
2021/07/06 13:36:34;;;;;;;241.97;78.63;;;;;;;;;;5061099;28;20450;-77
2021/07/06 13:39:01;;;;;;;260.10;82.40;;;;;;;;;;5075548;28;20405;-77
2021/07/06 13:41:27;;;;;;;241.10;78.50;;;;;;;;;;5066808;28;20421;-75
2021/07/06 13:43:54;;;;;;;238.93;80.57;;;;;;;;;;5055896;28;20755;-74
2021/07/06 13:46:21;;;;;;;255.43;79.87;;;;;;;;;;5055350;28;20371;-75
2021/07/06 13:48:47;;;;;;;284.60;86.20;;;;;;;;;;5074134;28;20415;-75
2021/07/06 13:51:13;;;;;;;278.40;84.40;;;;;;;;;;5068123;28;20506;-75
2021/07/06 13:53:39;;;;;;;255.20;81.17;;;;;;;;;;5055819;28;20396;-75
2021/07/06 13:56:06;;;;;;;265.20;79.43;;;;;;;;;;5055915;28;20824;-75
2021/07/06 13:58:32;;;;;;;227.17;73.87;;;;;;;;;;5066489;28;20426;-75